sensor_id;sensor_type;location;lat;lon;timestamp;pressure;altitude;pressure_sealevel;temperature;humidity
72116;BME280;59991;52.140;5.428;2022-09-09T00:00:25;100801.50;;;15.36;84.97
72116;BME280;59991;52.140;5.428;2022-09-09T00:01:09;100805.03;;;15.36;84.84
72116;BME280;59991;52.140;5.428;2022-09-09T00:02:00;100802.69;;;15.35;84.51
72116;BME280;59991;52.140;5.428;2022-09-09T00:02:33;100800.34;;;15.33;84.81
72116;BME280;59991;52.140;5.428;2022-09-09T00:03:12;100795.63;;;15.34;84.66
72116;BME280;59991;52.140;5.428;2022-09-09T00:03:54;100798.78;;;15.32;84.46
72116;BME280;59991;52.140;5.428;2022-09-09T00:04:34;100802.31;;;15.33;84.70
72116;BME280;59991;52.140;5.428;2022-09-09T00:06:04;100794.06;;;15.33;84.80
72116;BME280;59991;52.140;5.428;2022-09-09T00:06:59;100791.34;;;15.33;84.69
72116;BME280;59991;52.140;5.428;2022-09-09T00:07:49;100787.03;;;15.32;85.06
72116;BME280;59991;52.140;5.428;2022-09-09T00:08:28;100779.97;;;15.31;84.54
72116;BME280;59991;52.140;5.428;2022-09-09T00:09:09;100789.78;;;15.32;84.58
72116;BME280;59991;52.140;5.428;2022-09-09T00:09:49;100787.81;;;15.32;84.69
72116;BME280;59991;52.140;5.428;2022-09-09T00:10:37;100785.84;;;15.33;84.97
72116;BME280;59991;52.140;5.428;2022-09-09T00:11:13;100781.53;;;15.32;85.28
72116;BME280;59991;52.140;5.428;2022-09-09T00:11:53;100787.81;;;15.32;85.01
72116;BME280;59991;52.140;5.428;2022-09-09T00:13:33;100785.47;;;15.31;85.13
72116;BME280;59991;52.140;5.428;2022-09-09T00:14:13;100773.69;;;15.30;85.50
72116;BME280;59991;52.140;5.428;2022-09-09T00:14:51;100780.75;;;15.31;85.18
72116;BME280;59991;52.140;5.428;2022-09-09T00:15:28;100783.91;;;15.30;85.15
72116;BME280;59991;52.140;5.428;2022-09-09T00:16:21;100779.19;;;15.30;84.57
72116;BME280;59991;52.140;5.428;2022-09-09T00:17:01;100781.16;;;15.30;85.22
72116;BME280;59991;52.140;5.428;2022-09-09T00:19:50;100782.34;;;15.29;84.72
72116;BME280;59991;52.140;5.428;2022-09-09T00:21:33;100777.22;;;15.31;84.81
72116;BME280;59991;52.140;5.428;2022-09-09T00:22:54;100771.31;;;15.32;85.19
72116;BME280;59991;52.140;5.428;2022-09-09T00:23:34;100776.03;;;15.32;85.18
72116;BME280;59991;52.140;5.428;2022-09-09T00:24:24;100773.28;;;15.32;85.09
72116;BME280;59991;52.140;5.428;2022-09-09T00:25:11;100775.25;;;15.31;85.10
72116;BME280;59991;52.140;5.428;2022-09-09T00:25:52;100777.63;;;15.29;85.30
72116;BME280;59991;52.140;5.428;2022-09-09T00:27:37;100769.78;;;15.28;84.77
72116;BME280;59991;52.140;5.428;2022-09-09T00:28:17;100776.06;;;15.28;85.28
72116;BME280;59991;52.140;5.428;2022-09-09T00:29:25;100774.09;;;15.29;85.02
72116;BME280;59991;52.140;5.428;2022-09-09T00:29:56;100775.28;;;15.28;85.51
72116;BME280;59991;52.140;5.428;2022-09-09T00:30:34;100780.00;;;15.27;85.68
72116;BME280;59991;52.140;5.428;2022-09-09T00:31:15;100782.75;;;15.27;85.48
72116;BME280;59991;52.140;5.428;2022-09-09T00:31:47;100776.88;;;15.25;85.22
72116;BME280;59991;52.140;5.428;2022-09-09T00:32:20;100775.69;;;15.26;85.34
72116;BME280;59991;52.140;5.428;2022-09-09T00:32:59;100777.66;;;15.26;85.47
72116;BME280;59991;52.140;5.428;2022-09-09T00:33:31;100778.84;;;15.25;85.79
72116;BME280;59991;52.140;5.428;2022-09-09T00:34:10;100773.00;;;15.23;85.84
72116;BME280;59991;52.140;5.428;2022-09-09T00:35:45;100783.59;;;15.20;85.51
72116;BME280;59991;52.140;5.428;2022-09-09T00:36:21;100779.72;;;15.18;85.75
72116;BME280;59991;52.140;5.428;2022-09-09T00:36:56;100784.44;;;15.17;85.76
72116;BME280;59991;52.140;5.428;2022-09-09T00:37:29;100785.63;;;15.16;85.68
72116;BME280;59991;52.140;5.428;2022-09-09T00:38:19;100784.84;;;15.16;85.83
72116;BME280;59991;52.140;5.428;2022-09-09T00:38:56;100777.03;;;15.14;85.86
72116;BME280;59991;52.140;5.428;2022-09-09T00:39:32;100777.03;;;15.14;86.06
72116;BME280;59991;52.140;5.428;2022-09-09T00:40:18;100784.47;;;15.14;85.75
72116;BME280;59991;52.140;5.428;2022-09-09T00:41:01;100781.72;;;15.14;86.10
72116;BME280;59991;52.140;5.428;2022-09-09T00:42:41;100782.88;;;15.16;85.87
72116;BME280;59991;52.140;5.428;2022-09-09T00:44:00;100772.69;;;15.17;85.66
72116;BME280;59991;52.140;5.428;2022-09-09T00:44:36;100773.50;;;15.14;85.81
72116;BME280;59991;52.140;5.428;2022-09-09T00:46:39;100772.72;;;15.13;85.55
72116;BME280;59991;52.140;5.428;2022-09-09T00:48:10;100773.16;;;15.08;85.48
72116;BME280;59991;52.140;5.428;2022-09-09T00:49:37;100767.69;;;15.05;85.65
72116;BME280;59991;52.140;5.428;2022-09-09T00:51:43;100765.75;;;15.02;85.55
72116;BME280;59991;52.140;5.428;2022-09-09T00:52:46;100770.06;;;15.03;86.12
72116;BME280;59991;52.140;5.428;2022-09-09T00:53:56;100775.22;;;15.01;85.75
72116;BME280;59991;52.140;5.428;2022-09-09T00:55:41;100768.56;;;14.98;86.05
72116;BME280;59991;52.140;5.428;2022-09-09T00:56:25;100772.50;;;14.97;86.09
72116;BME280;59991;52.140;5.428;2022-09-09T00:57:13;100770.94;;;14.96;86.41
72116;BME280;59991;52.140;5.428;2022-09-09T00:57:46;100767.81;;;14.94;86.37
72116;BME280;59991;52.140;5.428;2022-09-09T00:58:18;100772.53;;;14.94;86.36
72116;BME280;59991;52.140;5.428;2022-09-09T00:59:07;100773.31;;;14.94;86.40
72116;BME280;59991;52.140;5.428;2022-09-09T00:59:52;100778.41;;;14.96;86.20
72116;BME280;59991;52.140;5.428;2022-09-09T01:00:30;100774.88;;;14.95;86.59
72116;BME280;59991;52.140;5.428;2022-09-09T01:01:10;100774.50;;;14.93;86.51
72116;BME280;59991;52.140;5.428;2022-09-09T01:01:43;100769.00;;;14.93;86.30
72116;BME280;59991;52.140;5.428;2022-09-09T01:02:46;100779.22;;;14.93;86.15
72116;BME280;59991;52.140;5.428;2022-09-09T01:03:46;100778.44;;;14.92;86.40
72116;BME280;59991;52.140;5.428;2022-09-09T01:04:29;100778.84;;;14.91;86.28
72116;BME280;59991;52.140;5.428;2022-09-09T01:05:22;100781.59;;;14.91;86.08
72116;BME280;59991;52.140;5.428;2022-09-09T01:06:45;100777.28;;;14.90;86.43
72116;BME280;59991;52.140;5.428;2022-09-09T01:07:23;100780.44;;;14.88;86.23
72116;BME280;59991;52.140;5.428;2022-09-09T01:07:55;100780.44;;;14.88;86.32
72116;BME280;59991;52.140;5.428;2022-09-09T01:09:30;100780.03;;;14.90;86.34
72116;BME280;59991;52.140;5.428;2022-09-09T01:10:07;100784.72;;;14.89;86.05
72116;BME280;59991;52.140;5.428;2022-09-09T01:10:51;100783.19;;;14.88;86.29
72116;BME280;59991;52.140;5.428;2022-09-09T01:11:33;100782.03;;;14.85;86.26
72116;BME280;59991;52.140;5.428;2022-09-09T01:12:12;100785.16;;;14.84;86.79
72116;BME280;59991;52.140;5.428;2022-09-09T01:12:46;100787.91;;;14.84;86.21
72116;BME280;59991;52.140;5.428;2022-09-09T01:13:27;100790.66;;;14.84;86.25
72116;BME280;59991;52.140;5.428;2022-09-09T01:14:14;100788.69;;;14.84;86.57
72116;BME280;59991;52.140;5.428;2022-09-09T01:14:50;100785.16;;;14.84;86.12
72116;BME280;59991;52.140;5.428;2022-09-09T01:15:27;100791.44;;;14.84;86.49
72116;BME280;59991;52.140;5.428;2022-09-09T01:16:01;100784.38;;;14.83;86.31
72116;BME280;59991;52.140;5.428;2022-09-09T01:16:34;100781.25;;;14.85;86.45
72116;BME280;59991;52.140;5.428;2022-09-09T01:18:08;100785.16;;;14.84;86.10
72116;BME280;59991;52.140;5.428;2022-09-09T01:18:45;100783.25;;;14.81;86.61
72116;BME280;59991;52.140;5.428;2022-09-09T01:19:30;100780.53;;;14.81;86.21
72116;BME280;59991;52.140;5.428;2022-09-09T01:20:15;100777.41;;;14.79;86.08
72116;BME280;59991;52.140;5.428;2022-09-09T01:22:01;100783.66;;;14.79;86.34
72116;BME280;59991;52.140;5.428;2022-09-09T01:23:38;100781.72;;;14.80;86.59
72116;BME280;59991;52.140;5.428;2022-09-09T01:23:41;100778.19;;;14.79;86.31
72116;BME280;59991;52.140;5.428;2022-09-09T01:24:38;100776.22;;;14.80;86.06
72116;BME280;59991;52.140;5.428;2022-09-09T01:26:56;100772.69;;;14.79;85.97
72116;BME280;59991;52.140;5.428;2022-09-09T01:27:29;100760.56;;;14.77;86.28
72116;BME280;59991;52.140;5.428;2022-09-09T01:28:04;100770.34;;;14.78;85.99
72116;BME280;59991;52.140;5.428;2022-09-09T01:28:40;100767.22;;;14.76;86.00
72116;BME280;59991;52.140;5.428;2022-09-09T01:29:15;100764.88;;;14.74;86.01
72116;BME280;59991;52.140;5.428;2022-09-09T01:29:47;100769.19;;;14.75;86.45
72116;BME280;59991;52.140;5.428;2022-09-09T01:30:19;100764.88;;;14.74;86.34
72116;BME280;59991;52.140;5.428;2022-09-09T01:30:52;100765.28;;;14.73;86.43
72116;BME280;59991;52.140;5.428;2022-09-09T01:31:59;100759.81;;;14.73;86.15
72116;BME280;59991;52.140;5.428;2022-09-09T01:32:41;100772.75;;;14.72;86.17
72116;BME280;59991;52.140;5.428;2022-09-09T01:33:15;100762.56;;;14.73;86.55
72116;BME280;59991;52.140;5.428;2022-09-09T01:33:47;100766.47;;;14.72;85.97
72116;BME280;59991;52.140;5.428;2022-09-09T01:34:19;100768.03;;;14.73;86.37
72116;BME280;59991;52.140;5.428;2022-09-09T01:34:51;100759.44;;;14.71;86.22
72116;BME280;59991;52.140;5.428;2022-09-09T01:35:37;100759.44;;;14.71;86.29
72116;BME280;59991;52.140;5.428;2022-09-09T01:36:18;100760.22;;;14.71;85.77
72116;BME280;59991;52.140;5.428;2022-09-09T01:37:09;100757.47;;;14.71;86.21
72116;BME280;59991;52.140;5.428;2022-09-09T01:37:41;100754.72;;;14.71;86.40
72116;BME280;59991;52.140;5.428;2022-09-09T01:38:13;100760.63;;;14.70;86.40
72116;BME280;59991;52.140;5.428;2022-09-09T01:38:45;100758.66;;;14.70;86.06
72116;BME280;59991;52.140;5.428;2022-09-09T01:39:17;100764.91;;;14.71;86.44
72116;BME280;59991;52.140;5.428;2022-09-09T01:39:48;100761.38;;;14.70;86.01
72116;BME280;59991;52.140;5.428;2022-09-09T01:40:20;100756.69;;;14.71;86.30
72116;BME280;59991;52.140;5.428;2022-09-09T01:40:51;100759.06;;;14.69;86.18
72116;BME280;59991;52.140;5.428;2022-09-09T01:41:24;100760.22;;;14.71;85.96
72116;BME280;59991;52.140;5.428;2022-09-09T01:41:56;100756.69;;;14.71;85.85
72116;BME280;59991;52.140;5.428;2022-09-09T01:42:27;100760.59;;;14.73;86.21
72116;BME280;59991;52.140;5.428;2022-09-09T01:42:59;100763.72;;;14.72;86.48
72116;BME280;59991;52.140;5.428;2022-09-09T01:43:30;100757.47;;;14.71;85.92
72116;BME280;59991;52.140;5.428;2022-09-09T01:44:02;100755.13;;;14.70;85.97
72116;BME280;59991;52.140;5.428;2022-09-09T01:44:35;100758.25;;;14.72;86.17
72116;BME280;59991;52.140;5.428;2022-09-09T01:45:07;100761.00;;;14.72;85.82
72116;BME280;59991;52.140;5.428;2022-09-09T01:45:42;100768.44;;;14.71;85.44
72116;BME280;59991;52.140;5.428;2022-09-09T01:46:14;100765.69;;;14.71;86.04
72116;BME280;59991;52.140;5.428;2022-09-09T01:46:47;100760.22;;;14.71;85.56
72116;BME280;59991;52.140;5.428;2022-09-09T01:47:18;100760.22;;;14.71;85.96
72116;BME280;59991;52.140;5.428;2022-09-09T01:47:52;100764.91;;;14.71;86.15
72116;BME280;59991;52.140;5.428;2022-09-09T01:48:24;100764.13;;;14.70;85.75
72116;BME280;59991;52.140;5.428;2022-09-09T01:48:57;100763.34;;;14.70;85.49
72116;BME280;59991;52.140;5.428;2022-09-09T01:49:29;100757.09;;;14.69;85.42
72116;BME280;59991;52.140;5.428;2022-09-09T01:50:01;100759.84;;;14.69;85.47
72116;BME280;59991;52.140;5.428;2022-09-09T01:50:33;100758.28;;;14.68;85.50
72116;BME280;59991;52.140;5.428;2022-09-09T01:51:04;100764.94;;;14.67;85.56
72116;BME280;59991;52.140;5.428;2022-09-09T01:51:37;100770.44;;;14.67;86.45
72116;BME280;59991;52.140;5.428;2022-09-09T01:52:10;100755.97;;;14.63;86.02
72116;BME280;59991;52.140;5.428;2022-09-09T01:52:42;100763.38;;;14.66;86.11
72116;BME280;59991;52.140;5.428;2022-09-09T01:53:17;100760.63;;;14.66;85.69
72116;BME280;59991;52.140;5.428;2022-09-09T01:53:48;100754.00;;;14.64;86.09
72116;BME280;59991;52.140;5.428;2022-09-09T01:54:22;100764.56;;;14.65;85.85
72116;BME280;59991;52.140;5.428;2022-09-09T01:54:55;100760.25;;;14.64;85.89
72116;BME280;59991;52.140;5.428;2022-09-09T01:55:38;100768.50;;;14.64;86.04
72116;BME280;59991;52.140;5.428;2022-09-09T01:56:24;100765.34;;;14.66;85.55
72116;BME280;59991;52.140;5.428;2022-09-09T01:57:21;100770.47;;;14.64;86.14
72116;BME280;59991;52.140;5.428;2022-09-09T01:58:10;100763.06;;;14.61;86.12
72116;BME280;59991;52.140;5.428;2022-09-09T01:59:01;100770.91;;;14.59;85.67
72116;BME280;59991;52.140;5.428;2022-09-09T01:59:45;100765.44;;;14.59;86.13
72116;BME280;59991;52.140;5.428;2022-09-09T02:00:19;100760.34;;;14.57;86.32
72116;BME280;59991;52.140;5.428;2022-09-09T02:01:02;100759.56;;;14.57;85.81
72116;BME280;59991;52.140;5.428;2022-09-09T02:01:50;100761.94;;;14.55;86.13
72116;BME280;59991;52.140;5.428;2022-09-09T02:02:35;100754.47;;;14.55;85.94
72116;BME280;59991;52.140;5.428;2022-09-09T02:03:24;100761.94;;;14.55;85.80
72116;BME280;59991;52.140;5.428;2022-09-09T02:03:57;100760.38;;;14.54;86.18
72116;BME280;59991;52.140;5.428;2022-09-09T02:04:42;100761.94;;;14.55;86.36
72116;BME280;59991;52.140;5.428;2022-09-09T02:05:44;100758.41;;;14.54;85.69
72116;BME280;59991;52.140;5.428;2022-09-09T02:06:53;100754.88;;;14.54;85.84
72116;BME280;59991;52.140;5.428;2022-09-09T02:07:41;100750.59;;;14.52;86.26
72116;BME280;59991;52.140;5.428;2022-09-09T02:08:39;100759.19;;;14.55;86.08
72116;BME280;59991;52.140;5.428;2022-09-09T02:09:12;100752.16;;;14.54;86.21
72116;BME280;59991;52.140;5.428;2022-09-09T02:09:47;100755.28;;;14.52;86.13
72116;BME280;59991;52.140;5.428;2022-09-09T02:10:37;100761.16;;;14.54;85.48
72116;BME280;59991;52.140;5.428;2022-09-09T02:11:18;100754.09;;;14.53;85.64
72116;BME280;59991;52.140;5.428;2022-09-09T02:11:54;100746.66;;;14.54;86.07
72116;BME280;59991;52.140;5.428;2022-09-09T02:12:28;100754.88;;;14.54;85.63
72116;BME280;59991;52.140;5.428;2022-09-09T02:13:05;100753.31;;;14.52;86.24
72116;BME280;59991;52.140;5.428;2022-09-09T02:13:39;100753.31;;;14.52;86.12
72116;BME280;59991;52.140;5.428;2022-09-09T02:14:16;100747.47;;;14.50;85.69
72116;BME280;59991;52.140;5.428;2022-09-09T02:14:56;100755.69;;;14.50;85.45
72116;BME280;59991;52.140;5.428;2022-09-09T02:15:38;100753.72;;;14.51;86.13
72116;BME280;59991;52.140;5.428;2022-09-09T02:16:31;100751.38;;;14.49;85.94
72116;BME280;59991;52.140;5.428;2022-09-09T02:17:09;100742.38;;;14.49;86.19
72116;BME280;59991;52.140;5.428;2022-09-09T02:17:41;100745.53;;;14.47;86.10
72116;BME280;59991;52.140;5.428;2022-09-09T02:18:15;100747.88;;;14.49;86.19
72116;BME280;59991;52.140;5.428;2022-09-09T02:19:34;100746.69;;;14.50;86.40
72116;BME280;59991;52.140;5.428;2022-09-09T02:20:09;100739.22;;;14.50;85.79
72116;BME280;59991;52.140;5.428;2022-09-09T02:20:44;100744.34;;;14.48;85.63
72116;BME280;59991;52.140;5.428;2022-09-09T02:21:17;100747.88;;;14.49;85.40
72116;BME280;59991;52.140;5.428;2022-09-09T02:21:49;100742.00;;;14.47;85.64
72116;BME280;59991;52.140;5.428;2022-09-09T02:22:23;100743.97;;;14.46;85.95
72116;BME280;59991;52.140;5.428;2022-09-09T02:22:55;100740.84;;;14.44;86.16
72116;BME280;59991;52.140;5.428;2022-09-09T02:23:28;100748.69;;;14.46;85.59
72116;BME280;59991;52.140;5.428;2022-09-09T02:24:03;100747.91;;;14.45;85.61
72116;BME280;59991;52.140;5.428;2022-09-09T02:24:39;100743.97;;;14.46;85.45
72116;BME280;59991;52.140;5.428;2022-09-09T02:25:14;100745.94;;;14.46;85.53
72116;BME280;59991;52.140;5.428;2022-09-09T02:25:46;100750.22;;;14.47;85.76
72116;BME280;59991;52.140;5.428;2022-09-09T02:26:19;100746.72;;;14.46;85.70
72116;BME280;59991;52.140;5.428;2022-09-09T02:26:54;100743.19;;;14.46;85.73
72116;BME280;59991;52.140;5.428;2022-09-09T02:27:27;100745.94;;;14.46;85.45
72116;BME280;59991;52.140;5.428;2022-09-09T02:27:59;100750.63;;;14.45;85.40
72116;BME280;59991;52.140;5.428;2022-09-09T02:28:31;100738.53;;;14.43;85.45
72116;BME280;59991;52.140;5.428;2022-09-09T02:29:05;100739.28;;;14.43;85.37
72116;BME280;59991;52.140;5.428;2022-09-09T02:29:41;100745.16;;;14.45;85.28
72116;BME280;59991;52.140;5.428;2022-09-09T02:30:13;100742.03;;;14.43;85.45
72116;BME280;59991;52.140;5.428;2022-09-09T02:30:46;100737.75;;;14.42;85.90
72116;BME280;59991;52.140;5.428;2022-09-09T02:31:22;100736.97;;;14.42;85.73
72116;BME280;59991;52.140;5.428;2022-09-09T02:31:58;100729.94;;;14.41;85.71
72116;BME280;59991;52.140;5.428;2022-09-09T02:32:33;100736.19;;;14.41;85.63
72116;BME280;59991;52.140;5.428;2022-09-09T02:33:07;100738.94;;;14.41;85.79
72116;BME280;59991;52.140;5.428;2022-09-09T02:33:42;100738.94;;;14.41;85.86
72116;BME280;59991;52.140;5.428;2022-09-09T02:34:15;100737.75;;;14.39;85.53
72116;BME280;59991;52.140;5.428;2022-09-09T02:34:53;100741.28;;;14.39;85.45
72116;BME280;59991;52.140;5.428;2022-09-09T02:35:27;100742.47;;;14.38;85.58
72116;BME280;59991;52.140;5.428;2022-09-09T02:36:02;100744.78;;;14.40;85.87
72116;BME280;59991;52.140;5.428;2022-09-09T02:36:35;100742.06;;;14.40;86.01
72116;BME280;59991;52.140;5.428;2022-09-09T02:37:09;100744.03;;;14.39;85.95
72116;BME280;59991;52.140;5.428;2022-09-09T02:37:44;100743.25;;;14.39;85.55
72116;BME280;59991;52.140;5.428;2022-09-09T02:38:18;100740.50;;;14.39;85.84
72116;BME280;59991;52.140;5.428;2022-09-09T02:38:52;100738.94;;;14.38;85.83
72116;BME280;59991;52.140;5.428;2022-09-09T02:39:25;100736.19;;;14.38;86.25
72116;BME280;59991;52.140;5.428;2022-09-09T02:39:56;100731.88;;;14.37;85.98
72116;BME280;59991;52.140;5.428;2022-09-09T02:40:28;100741.31;;;14.36;86.02
72116;BME280;59991;52.140;5.428;2022-09-09T02:40:59;100738.16;;;14.37;86.55
72116;BME280;59991;52.140;5.428;2022-09-09T02:41:33;100741.28;;;14.39;85.69
72116;BME280;59991;52.140;5.428;2022-09-09T02:42:04;100736.97;;;14.38;86.26
72116;BME280;59991;52.140;5.428;2022-09-09T02:42:40;100740.50;;;14.39;85.72
72116;BME280;59991;52.140;5.428;2022-09-09T02:43:14;100738.53;;;14.39;85.56
72116;BME280;59991;52.140;5.428;2022-09-09T02:43:47;100733.44;;;14.38;86.06
72116;BME280;59991;52.140;5.428;2022-09-09T02:44:18;100736.59;;;14.36;85.61
72116;BME280;59991;52.140;5.428;2022-09-09T02:44:50;100740.91;;;14.37;85.89
72116;BME280;59991;52.140;5.428;2022-09-09T02:45:27;100737.38;;;14.37;85.51
72116;BME280;59991;52.140;5.428;2022-09-09T02:47:37;100742.88;;;14.37;85.88
72116;BME280;59991;52.140;5.428;2022-09-09T02:48:18;100747.56;;;14.36;85.91
72116;BME280;59991;52.140;5.428;2022-09-09T02:48:56;100733.06;;;14.36;85.94
72116;BME280;59991;52.140;5.428;2022-09-09T02:50:34;100737.41;;;14.33;85.74
72116;BME280;59991;52.140;5.428;2022-09-09T02:51:13;100739.38;;;14.33;85.80
72116;BME280;59991;52.140;5.428;2022-09-09T02:52:08;100743.69;;;14.30;85.89
72116;BME280;59991;52.140;5.428;2022-09-09T02:53:39;100740.56;;;14.28;85.37
72116;BME280;59991;52.140;5.428;2022-09-09T02:54:29;100739.00;;;14.27;85.68
72116;BME280;59991;52.140;5.428;2022-09-09T02:55:11;100737.44;;;14.26;85.76
72116;BME280;59991;52.140;5.428;2022-09-09T02:55:54;100738.63;;;14.25;86.02
72116;BME280;59991;52.140;5.428;2022-09-09T02:56:30;100738.63;;;14.25;86.36
72116;BME280;59991;52.140;5.428;2022-09-09T02:57:23;100742.56;;;14.24;86.06
72116;BME280;59991;52.140;5.428;2022-09-09T02:57:56;100737.50;;;14.23;86.13
72116;BME280;59991;52.140;5.428;2022-09-09T02:58:28;100740.25;;;14.23;85.99
72116;BME280;59991;52.140;5.428;2022-09-09T02:58:59;100738.69;;;14.22;85.86
72116;BME280;59991;52.140;5.428;2022-09-09T02:59:31;100732.03;;;14.23;86.16
72116;BME280;59991;52.140;5.428;2022-09-09T03:00:03;100734.75;;;14.23;86.35
72116;BME280;59991;52.140;5.428;2022-09-09T03:00:35;100734.31;;;14.24;85.86
72116;BME280;59991;52.140;5.428;2022-09-09T03:01:10;100730.84;;;14.24;86.03
72116;BME280;59991;52.140;5.428;2022-09-09T03:01:42;100727.31;;;14.23;85.91
72116;BME280;59991;52.140;5.428;2022-09-09T03:02:14;100734.75;;;14.23;85.90
72116;BME280;59991;52.140;5.428;2022-09-09T03:02:45;100738.28;;;14.23;86.16
72116;BME280;59991;52.140;5.428;2022-09-09T03:03:18;100732.41;;;14.21;85.87
72116;BME280;59991;52.140;5.428;2022-09-09T03:03:50;100728.91;;;14.21;86.25
72116;BME280;59991;52.140;5.428;2022-09-09T03:04:22;100737.91;;;14.21;85.90
72116;BME280;59991;52.140;5.428;2022-09-09T03:04:53;100730.47;;;14.22;85.75
72116;BME280;59991;52.140;5.428;2022-09-09T03:05:25;100730.47;;;14.22;86.01
72116;BME280;59991;52.140;5.428;2022-09-09T03:05:57;100733.97;;;14.22;85.69
72116;BME280;59991;52.140;5.428;2022-09-09T03:06:28;100727.72;;;14.22;85.81
72116;BME280;59991;52.140;5.428;2022-09-09T03:06:59;100727.72;;;14.22;86.27
72116;BME280;59991;52.140;5.428;2022-09-09T03:07:31;100737.50;;;14.23;86.19
72116;BME280;59991;52.140;5.428;2022-09-09T03:08:03;100725.75;;;14.22;85.78
72116;BME280;59991;52.140;5.428;2022-09-09T03:08:35;100733.97;;;14.22;86.10
72116;BME280;59991;52.140;5.428;2022-09-09T03:09:07;100726.94;;;14.21;85.54
72116;BME280;59991;52.140;5.428;2022-09-09T03:09:39;100728.91;;;14.21;86.11
72116;BME280;59991;52.140;5.428;2022-09-09T03:10:11;100735.16;;;14.21;85.80
72116;BME280;59991;52.140;5.428;2022-09-09T03:10:42;100735.16;;;14.21;85.66
72116;BME280;59991;52.140;5.428;2022-09-09T03:11:13;100737.91;;;14.21;86.04
72116;BME280;59991;52.140;5.428;2022-09-09T03:11:45;100732.44;;;14.17;85.64
72116;BME280;59991;52.140;5.428;2022-09-09T03:12:16;100732.03;;;14.19;85.49
72116;BME280;59991;52.140;5.428;2022-09-09T03:12:48;100721.09;;;14.15;85.88
72116;BME280;59991;52.140;5.428;2022-09-09T03:13:19;100728.53;;;14.15;86.01
72116;BME280;59991;52.140;5.428;2022-09-09T03:13:50;100728.91;;;14.17;85.75
72116;BME280;59991;52.140;5.428;2022-09-09T03:14:23;100726.97;;;14.14;86.17
72116;BME280;59991;52.140;5.428;2022-09-09T03:14:56;100732.84;;;14.16;85.78
72116;BME280;59991;52.140;5.428;2022-09-09T03:15:27;100721.91;;;14.12;86.03
72116;BME280;59991;52.140;5.428;2022-09-09T03:16:01;100725.81;;;14.11;86.04
72116;BME280;59991;52.140;5.428;2022-09-09T03:16:32;100726.56;;;14.15;86.08
72116;BME280;59991;52.140;5.428;2022-09-09T03:17:06;100721.13;;;14.12;86.27
72116;BME280;59991;52.140;5.428;2022-09-09T03:17:37;100734.03;;;14.15;86.05
72116;BME280;59991;52.140;5.428;2022-09-09T03:18:08;100721.91;;;14.12;85.85
72116;BME280;59991;52.140;5.428;2022-09-09T03:18:40;100726.97;;;14.14;86.12
72116;BME280;59991;52.140;5.428;2022-09-09T03:19:12;100726.97;;;14.14;86.03
72116;BME280;59991;52.140;5.428;2022-09-09T03:19:43;100730.50;;;14.14;86.37
72116;BME280;59991;52.140;5.428;2022-09-09T03:20:15;100728.56;;;14.11;85.85
72116;BME280;59991;52.140;5.428;2022-09-09T03:20:46;100728.16;;;14.13;85.63
72116;BME280;59991;52.140;5.428;2022-09-09T03:21:22;100728.94;;;14.13;85.76
72116;BME280;59991;52.140;5.428;2022-09-09T03:21:53;100728.56;;;14.11;85.41
72116;BME280;59991;52.140;5.428;2022-09-09T03:22:25;100729.34;;;14.12;85.79
72116;BME280;59991;52.140;5.428;2022-09-09T03:22:59;100733.25;;;14.11;85.45
72116;BME280;59991;52.140;5.428;2022-09-09T03:23:30;100726.63;;;14.08;85.64
72116;BME280;59991;52.140;5.428;2022-09-09T03:24:02;100732.09;;;14.08;86.07
72116;BME280;59991;52.140;5.428;2022-09-09T03:24:34;100727.03;;;14.07;86.40
72116;BME280;59991;52.140;5.428;2022-09-09T03:25:06;100733.28;;;14.07;85.79
72116;BME280;59991;52.140;5.428;2022-09-09T03:25:37;100736.81;;;14.08;85.69
72116;BME280;59991;52.140;5.428;2022-09-09T03:26:09;100740.72;;;14.07;86.42
72116;BME280;59991;52.140;5.428;2022-09-09T03:26:41;100736.44;;;14.06;86.06
72116;BME280;59991;52.140;5.428;2022-09-09T03:27:16;100738.81;;;14.04;86.10
72116;BME280;59991;52.140;5.428;2022-09-09T03:27:47;100734.53;;;14.03;86.30
72116;BME280;59991;52.140;5.428;2022-09-09T03:28:19;100737.25;;;14.03;85.81
72116;BME280;59991;52.140;5.428;2022-09-09T03:28:51;100725.13;;;14.00;86.25
72116;BME280;59991;52.140;5.428;2022-09-09T03:29:23;100731.00;;;14.02;86.59
72116;BME280;59991;52.140;5.428;2022-09-09T03:29:55;100727.47;;;14.02;86.31
72116;BME280;59991;52.140;5.428;2022-09-09T03:30:27;100724.34;;;14.03;86.19
72116;BME280;59991;52.140;5.428;2022-09-09T03:31:03;100729.38;;;14.05;86.22
72116;BME280;59991;52.140;5.428;2022-09-09T03:31:35;100727.84;;;14.04;86.53
72116;BME280;59991;52.140;5.428;2022-09-09T03:32:07;100723.16;;;14.04;86.63
72116;BME280;59991;52.140;5.428;2022-09-09T03:32:41;100728.63;;;14.04;86.44
72116;BME280;59991;52.140;5.428;2022-09-09T03:33:19;100726.28;;;14.03;86.36
72116;BME280;59991;52.140;5.428;2022-09-09T03:33:50;100722.78;;;14.02;86.30
72116;BME280;59991;52.140;5.428;2022-09-09T03:34:21;100726.28;;;14.03;86.31
72116;BME280;59991;52.140;5.428;2022-09-09T03:34:53;100726.28;;;14.03;86.55
72116;BME280;59991;52.140;5.428;2022-09-09T03:35:24;100722.78;;;13.99;86.38
72116;BME280;59991;52.140;5.428;2022-09-09T03:35:56;100722.78;;;13.99;86.08
72116;BME280;59991;52.140;5.428;2022-09-09T03:36:28;100729.84;;;14.00;86.67
72116;BME280;59991;52.140;5.428;2022-09-09T03:36:59;100725.13;;;14.00;86.53
72116;BME280;59991;52.140;5.428;2022-09-09T03:37:30;100727.09;;;14.00;86.60
72116;BME280;59991;52.140;5.428;2022-09-09T03:38:02;100725.50;;;14.02;86.32
72116;BME280;59991;52.140;5.428;2022-09-09T03:38:34;100731.00;;;14.02;85.93
72116;BME280;59991;52.140;5.428;2022-09-09T03:39:06;100734.53;;;14.03;85.90